sensor_id;sensor_type;location;lat;lon;timestamp;temperature;humidity
3954;DHT22;1991;48.682;9.030;2023-11-19T00:00:50;7.80;99.90
3954;DHT22;1991;48.682;9.030;2023-11-19T00:03:16;7.80;99.90
3954;DHT22;1991;48.682;9.030;2023-11-19T00:05:43;7.80;99.90
3954;DHT22;1991;48.682;9.030;2023-11-19T00:08:10;7.80;99.90
3954;DHT22;1991;48.682;9.030;2023-11-19T00:10:35;7.90;99.90
3954;DHT22;1991;48.682;9.030;2023-11-19T00:13:01;7.90;99.90
3954;DHT22;1991;48.682;9.030;2023-11-19T00:15:28;7.90;99.90
3954;DHT22;1991;48.682;9.030;2023-11-19T00:17:54;7.80;99.90
3954;DHT22;1991;48.682;9.030;2023-11-19T00:20:20;7.90;99.90
3954;DHT22;1991;48.682;9.030;2023-11-19T00:22:47;7.90;99.90
3954;DHT22;1991;48.682;9.030;2023-11-19T00:25:17;7.90;99.90
3954;DHT22;1991;48.682;9.030;2023-11-19T00:27:43;7.80;99.90
3954;DHT22;1991;48.682;9.030;2023-11-19T00:30:10;7.90;99.90
3954;DHT22;1991;48.682;9.030;2023-11-19T00:32:36;7.90;99.90
3954;DHT22;1991;48.682;9.030;2023-11-19T00:35:04;8.00;99.90
3954;DHT22;1991;48.682;9.030;2023-11-19T00:37:30;8.00;99.90
3954;DHT22;1991;48.682;9.030;2023-11-19T00:39:55;8.00;99.90
3954;DHT22;1991;48.682;9.030;2023-11-19T00:42:22;8.00;99.90
3954;DHT22;1991;48.682;9.030;2023-11-19T00:44:48;8.10;99.90
3954;DHT22;1991;48.682;9.030;2023-11-19T00:47:14;8.10;99.90
3954;DHT22;1991;48.682;9.030;2023-11-19T00:49:39;8.20;99.90
3954;DHT22;1991;48.682;9.030;2023-11-19T00:52:05;8.20;99.90
3954;DHT22;1991;48.682;9.030;2023-11-19T00:54:32;8.20;99.90
3954;DHT22;1991;48.682;9.030;2023-11-19T00:56:57;8.30;99.90
3954;DHT22;1991;48.682;9.030;2023-11-19T00:59:23;8.40;99.90
3954;DHT22;1991;48.682;9.030;2023-11-19T01:01:48;8.50;99.90
3954;DHT22;1991;48.682;9.030;2023-11-19T01:04:14;8.60;99.90
3954;DHT22;1991;48.682;9.030;2023-11-19T01:06:40;8.60;99.90
3954;DHT22;1991;48.682;9.030;2023-11-19T01:09:08;8.70;99.90
3954;DHT22;1991;48.682;9.030;2023-11-19T01:11:34;8.70;99.90
3954;DHT22;1991;48.682;9.030;2023-11-19T01:14:00;8.70;99.90
3954;DHT22;1991;48.682;9.030;2023-11-19T01:16:26;8.80;99.90
3954;DHT22;1991;48.682;9.030;2023-11-19T01:18:51;8.80;99.90
3954;DHT22;1991;48.682;9.030;2023-11-19T01:21:18;8.80;99.90
3954;DHT22;1991;48.682;9.030;2023-11-19T01:23:43;8.80;99.90
3954;DHT22;1991;48.682;9.030;2023-11-19T01:26:12;8.80;99.90
3954;DHT22;1991;48.682;9.030;2023-11-19T01:28:38;8.80;99.90
3954;DHT22;1991;48.682;9.030;2023-11-19T01:31:12;8.70;99.90
3954;DHT22;1991;48.682;9.030;2023-11-19T01:33:40;8.70;99.90
3954;DHT22;1991;48.682;9.030;2023-11-19T01:36:07;8.80;99.90
3954;DHT22;1991;48.682;9.030;2023-11-19T01:38:33;8.80;99.90
3954;DHT22;1991;48.682;9.030;2023-11-19T01:40:59;8.70;99.90
3954;DHT22;1991;48.682;9.030;2023-11-19T01:43:36;8.70;99.90
3954;DHT22;1991;48.682;9.030;2023-11-19T01:46:02;8.70;99.90
3954;DHT22;1991;48.682;9.030;2023-11-19T01:48:32;8.80;99.90
3954;DHT22;1991;48.682;9.030;2023-11-19T01:50:58;8.80;99.90
3954;DHT22;1991;48.682;9.030;2023-11-19T01:53:25;8.90;99.90
3954;DHT22;1991;48.682;9.030;2023-11-19T01:55:51;8.90;99.90
3954;DHT22;1991;48.682;9.030;2023-11-19T01:58:18;9.10;99.90
3954;DHT22;1991;48.682;9.030;2023-11-19T02:00:45;9.10;99.90
3954;DHT22;1991;48.682;9.030;2023-11-19T02:03:11;9.10;99.90
3954;DHT22;1991;48.682;9.030;2023-11-19T02:05:37;9.20;99.90
3954;DHT22;1991;48.682;9.030;2023-11-19T02:08:04;9.30;99.90
3954;DHT22;1991;48.682;9.030;2023-11-19T02:10:29;9.30;99.90
3954;DHT22;1991;48.682;9.030;2023-11-19T02:12:57;9.40;99.90
3954;DHT22;1991;48.682;9.030;2023-11-19T02:15:23;9.50;99.90
3954;DHT22;1991;48.682;9.030;2023-11-19T02:17:50;9.40;99.90
3954;DHT22;1991;48.682;9.030;2023-11-19T02:20:17;9.50;99.90
3954;DHT22;1991;48.682;9.030;2023-11-19T02:22:48;9.50;99.90
3954;DHT22;1991;48.682;9.030;2023-11-19T02:25:30;9.50;99.90
3954;DHT22;1991;48.682;9.030;2023-11-19T02:27:59;9.60;99.90
3954;DHT22;1991;48.682;9.030;2023-11-19T02:30:26;9.60;99.90
3954;DHT22;1991;48.682;9.030;2023-11-19T02:32:53;9.50;99.90
3954;DHT22;1991;48.682;9.030;2023-11-19T02:35:19;9.50;99.90
3954;DHT22;1991;48.682;9.030;2023-11-19T02:37:47;9.60;99.90
3954;DHT22;1991;48.682;9.030;2023-11-19T02:40:12;9.60;99.90
3954;DHT22;1991;48.682;9.030;2023-11-19T02:42:38;9.70;99.90
3954;DHT22;1991;48.682;9.030;2023-11-19T02:45:04;9.70;99.90
3954;DHT22;1991;48.682;9.030;2023-11-19T02:50:54;9.70;99.90
3954;DHT22;1991;48.682;9.030;2023-11-19T02:53:19;9.80;99.90
3954;DHT22;1991;48.682;9.030;2023-11-19T02:55:47;9.80;99.90
3954;DHT22;1991;48.682;9.030;2023-11-19T02:58:16;9.70;99.90
3954;DHT22;1991;48.682;9.030;2023-11-19T03:00:50;9.70;99.90
3954;DHT22;1991;48.682;9.030;2023-11-19T03:03:24;9.70;99.90
3954;DHT22;1991;48.682;9.030;2023-11-19T03:05:54;9.70;99.90
3954;DHT22;1991;48.682;9.030;2023-11-19T03:08:20;9.70;99.90
3954;DHT22;1991;48.682;9.030;2023-11-19T03:10:46;9.70;99.90
3954;DHT22;1991;48.682;9.030;2023-11-19T03:13:13;9.70;99.90
3954;DHT22;1991;48.682;9.030;2023-11-19T03:19:04;9.80;99.90
3954;DHT22;1991;48.682;9.030;2023-11-19T03:21:30;10.80;99.90
3954;DHT22;1991;48.682;9.030;2023-11-19T03:23:57;9.80;99.90
3954;DHT22;1991;48.682;9.030;2023-11-19T03:26:51;9.80;99.90
3954;DHT22;1991;48.682;9.030;2023-11-19T03:39:03;9.80;99.90
3954;DHT22;1991;48.682;9.030;2023-11-19T03:41:29;9.80;99.90
3954;DHT22;1991;48.682;9.030;2023-11-19T03:43:54;9.70;99.90
3954;DHT22;1991;48.682;9.030;2023-11-19T03:46:21;9.80;99.90
3954;DHT22;1991;48.682;9.030;2023-11-19T03:48:48;9.80;99.90
3954;DHT22;1991;48.682;9.030;2023-11-19T03:51:14;10.00;99.90
3954;DHT22;1991;48.682;9.030;2023-11-19T03:53:44;9.80;99.90
3954;DHT22;1991;48.682;9.030;2023-11-19T03:56:10;9.80;99.90
3954;DHT22;1991;48.682;9.030;2023-11-19T03:58:36;9.80;99.90
3954;DHT22;1991;48.682;9.030;2023-11-19T04:01:10;9.80;99.90
3954;DHT22;1991;48.682;9.030;2023-11-19T04:03:36;9.80;99.90
3954;DHT22;1991;48.682;9.030;2023-11-19T04:06:02;9.90;99.90
3954;DHT22;1991;48.682;9.030;2023-11-19T04:08:27;9.90;99.90
3954;DHT22;1991;48.682;9.030;2023-11-19T04:10:53;9.80;99.90
3954;DHT22;1991;48.682;9.030;2023-11-19T04:13:18;9.80;99.90
3954;DHT22;1991;48.682;9.030;2023-11-19T04:15:45;9.80;99.90
3954;DHT22;1991;48.682;9.030;2023-11-19T04:18:10;10.00;99.90
3954;DHT22;1991;48.682;9.030;2023-11-19T04:20:36;10.00;99.90
3954;DHT22;1991;48.682;9.030;2023-11-19T04:23:02;10.00;99.90
3954;DHT22;1991;48.682;9.030;2023-11-19T04:25:27;10.00;99.90
3954;DHT22;1991;48.682;9.030;2023-11-19T04:27:53;10.00;99.90
3954;DHT22;1991;48.682;9.030;2023-11-19T04:32:54;10.10;99.90
3954;DHT22;1991;48.682;9.030;2023-11-19T04:35:22;10.10;99.90
3954;DHT22;1991;48.682;9.030;2023-11-19T04:37:47;10.10;99.90
3954;DHT22;1991;48.682;9.030;2023-11-19T04:40:13;10.40;99.90
3954;DHT22;1991;48.682;9.030;2023-11-19T04:42:39;10.20;99.90
3954;DHT22;1991;48.682;9.030;2023-11-19T04:45:07;10.20;99.90
3954;DHT22;1991;48.682;9.030;2023-11-19T04:47:36;10.20;99.90
3954;DHT22;1991;48.682;9.030;2023-11-19T04:50:02;10.20;99.90
3954;DHT22;1991;48.682;9.030;2023-11-19T04:52:28;10.20;99.90
3954;DHT22;1991;48.682;9.030;2023-11-19T04:54:54;10.20;99.90
3954;DHT22;1991;48.682;9.030;2023-11-19T04:57:19;10.20;99.90
3954;DHT22;1991;48.682;9.030;2023-11-19T04:59:45;10.10;99.90
3954;DHT22;1991;48.682;9.030;2023-11-19T05:02:11;10.10;99.90
3954;DHT22;1991;48.682;9.030;2023-11-19T05:04:36;10.10;99.90
3954;DHT22;1991;48.682;9.030;2023-11-19T05:07:03;10.00;99.90
3954;DHT22;1991;48.682;9.030;2023-11-19T05:09:29;10.00;99.90
3954;DHT22;1991;48.682;9.030;2023-11-19T05:11:55;10.00;99.90
3954;DHT22;1991;48.682;9.030;2023-11-19T05:14:21;10.10;99.90
3954;DHT22;1991;48.682;9.030;2023-11-19T05:16:47;10.00;99.90
3954;DHT22;1991;48.682;9.030;2023-11-19T05:19:13;10.10;99.90
3954;DHT22;1991;48.682;9.030;2023-11-19T05:21:44;10.10;99.90
3954;DHT22;1991;48.682;9.030;2023-11-19T05:24:12;10.20;99.90
3954;DHT22;1991;48.682;9.030;2023-11-19T05:26:38;10.10;99.90
3954;DHT22;1991;48.682;9.030;2023-11-19T05:29:04;10.10;99.90
3954;DHT22;1991;48.682;9.030;2023-11-19T05:31:30;10.10;99.90
3954;DHT22;1991;48.682;9.030;2023-11-19T05:33:55;10.10;99.90
3954;DHT22;1991;48.682;9.030;2023-11-19T05:36:21;10.10;99.90
3954;DHT22;1991;48.682;9.030;2023-11-19T05:38:47;10.10;99.90
3954;DHT22;1991;48.682;9.030;2023-11-19T05:41:12;10.20;99.90
3954;DHT22;1991;48.682;9.030;2023-11-19T05:43:38;10.20;99.90
3954;DHT22;1991;48.682;9.030;2023-11-19T05:46:06;10.20;99.90
3954;DHT22;1991;48.682;9.030;2023-11-19T05:48:32;10.20;99.90
3954;DHT22;1991;48.682;9.030;2023-11-19T05:50:57;10.10;99.90
3954;DHT22;1991;48.682;9.030;2023-11-19T05:53:23;10.10;99.90
3954;DHT22;1991;48.682;9.030;2023-11-19T05:55:49;10.20;99.90
3954;DHT22;1991;48.682;9.030;2023-11-19T05:58:23;10.10;99.90
3954;DHT22;1991;48.682;9.030;2023-11-19T06:00:49;10.20;99.90
3954;DHT22;1991;48.682;9.030;2023-11-19T06:03:16;10.20;99.90
3954;DHT22;1991;48.682;9.030;2023-11-19T06:05:44;10.20;99.90
3954;DHT22;1991;48.682;9.030;2023-11-19T06:08:10;10.20;99.90
3954;DHT22;1991;48.682;9.030;2023-11-19T06:10:41;10.20;99.90
3954;DHT22;1991;48.682;9.030;2023-11-19T06:13:07;10.20;99.90
3954;DHT22;1991;48.682;9.030;2023-11-19T06:15:35;10.20;99.90
3954;DHT22;1991;48.682;9.030;2023-11-19T06:18:01;10.20;99.90
3954;DHT22;1991;48.682;9.030;2023-11-19T06:20:29;10.20;99.90
3954;DHT22;1991;48.682;9.030;2023-11-19T06:22:55;10.20;99.90
3954;DHT22;1991;48.682;9.030;2023-11-19T06:25:22;10.20;99.90
3954;DHT22;1991;48.682;9.030;2023-11-19T06:27:49;10.20;99.90
3954;DHT22;1991;48.682;9.030;2023-11-19T06:30:15;10.20;99.90
3954;DHT22;1991;48.682;9.030;2023-11-19T06:32:40;10.20;99.90
3954;DHT22;1991;48.682;9.030;2023-11-19T06:35:06;10.20;99.90
3954;DHT22;1991;48.682;9.030;2023-11-19T06:37:33;10.20;99.90
3954;DHT22;1991;48.682;9.030;2023-11-19T06:39:59;10.20;99.90
3954;DHT22;1991;48.682;9.030;2023-11-19T06:42:26;10.20;99.90
3954;DHT22;1991;48.682;9.030;2023-11-19T06:50:02;10.20;99.90
3954;DHT22;1991;48.682;9.030;2023-11-19T06:52:30;10.20;99.90
3954;DHT22;1991;48.682;9.030;2023-11-19T06:54:56;10.30;99.90
3954;DHT22;1991;48.682;9.030;2023-11-19T07:03:08;10.30;99.90
3954;DHT22;1991;48.682;9.030;2023-11-19T07:05:36;11.30;99.90
3954;DHT22;1991;48.682;9.030;2023-11-19T07:08:04;10.90;99.90
3954;DHT22;1991;48.682;9.030;2023-11-19T07:10:30;10.20;99.90
3954;DHT22;1991;48.682;9.030;2023-11-19T07:12:56;10.20;99.90
3954;DHT22;1991;48.682;9.030;2023-11-19T07:15:23;10.20;99.90
3954;DHT22;1991;48.682;9.030;2023-11-19T07:17:48;10.30;99.90
3954;DHT22;1991;48.682;9.030;2023-11-19T07:20:14;10.40;99.90
3954;DHT22;1991;48.682;9.030;2023-11-19T07:22:42;10.30;99.90
3954;DHT22;1991;48.682;9.030;2023-11-19T07:25:10;10.40;99.90
3954;DHT22;1991;48.682;9.030;2023-11-19T07:27:35;10.50;99.90
3954;DHT22;1991;48.682;9.030;2023-11-19T07:35:50;10.50;99.90
3954;DHT22;1991;48.682;9.030;2023-11-19T07:38:37;10.60;99.90
3954;DHT22;1991;48.682;9.030;2023-11-19T07:44:11;10.60;99.90
3954;DHT22;1991;48.682;9.030;2023-11-19T07:46:38;10.60;99.90
3954;DHT22;1991;48.682;9.030;2023-11-19T07:49:04;10.60;99.90
3954;DHT22;1991;48.682;9.030;2023-11-19T07:51:35;10.60;99.90
3954;DHT22;1991;48.682;9.030;2023-11-19T07:54:10;10.60;99.90
3954;DHT22;1991;48.682;9.030;2023-11-19T07:56:36;10.60;99.90
3954;DHT22;1991;48.682;9.030;2023-11-19T08:01:37;10.60;99.90
3954;DHT22;1991;48.682;9.030;2023-11-19T08:04:03;10.80;99.90
3954;DHT22;1991;48.682;9.030;2023-11-19T08:11:41;10.70;99.90
3954;DHT22;1991;48.682;9.030;2023-11-19T08:14:07;10.90;99.90
3954;DHT22;1991;48.682;9.030;2023-11-19T08:16:32;11.10;99.90
3954;DHT22;1991;48.682;9.030;2023-11-19T08:18:58;10.80;99.90
3954;DHT22;1991;48.682;9.030;2023-11-19T08:21:24;10.90;99.90
3954;DHT22;1991;48.682;9.030;2023-11-19T08:23:49;11.00;99.90
3954;DHT22;1991;48.682;9.030;2023-11-19T08:26:15;11.00;99.90
3954;DHT22;1991;48.682;9.030;2023-11-19T08:28:41;11.10;99.90
3954;DHT22;1991;48.682;9.030;2023-11-19T08:31:07;11.20;99.90
3954;DHT22;1991;48.682;9.030;2023-11-19T08:33:32;11.20;99.90
3954;DHT22;1991;48.682;9.030;2023-11-19T08:35:58;11.60;99.90
3954;DHT22;1991;48.682;9.030;2023-11-19T08:38:24;13.80;99.90
3954;DHT22;1991;48.682;9.030;2023-11-19T08:40:50;15.40;99.90
3954;DHT22;1991;48.682;9.030;2023-11-19T08:43:17;16.20;99.90
3954;DHT22;1991;48.682;9.030;2023-11-19T08:45:43;15.10;99.90
3954;DHT22;1991;48.682;9.030;2023-11-19T08:48:09;14.40;99.90
3954;DHT22;1991;48.682;9.030;2023-11-19T08:50:34;14.10;99.90
3954;DHT22;1991;48.682;9.030;2023-11-19T08:53:00;15.80;99.90
3954;DHT22;1991;48.682;9.030;2023-11-19T08:55:25;16.70;99.90
3954;DHT22;1991;48.682;9.030;2023-11-19T08:57:51;17.00;99.90
3954;DHT22;1991;48.682;9.030;2023-11-19T09:00:17;18.10;99.90
3954;DHT22;1991;48.682;9.030;2023-11-19T09:02:43;18.70;99.90
3954;DHT22;1991;48.682;9.030;2023-11-19T09:05:09;19.40;99.90
3954;DHT22;1991;48.682;9.030;2023-11-19T09:07:34;18.00;99.90
3954;DHT22;1991;48.682;9.030;2023-11-19T09:10:00;18.30;99.90
3954;DHT22;1991;48.682;9.030;2023-11-19T09:12:26;17.40;99.90
3954;DHT22;1991;48.682;9.030;2023-11-19T09:14:52;17.40;99.90
3954;DHT22;1991;48.682;9.030;2023-11-19T09:17:18;19.10;99.90
3954;DHT22;1991;48.682;9.030;2023-11-19T09:19:44;20.80;99.90
3954;DHT22;1991;48.682;9.030;2023-11-19T09:22:09;20.60;97.50
3954;DHT22;1991;48.682;9.030;2023-11-19T09:24:35;18.90;99.90
3954;DHT22;1991;48.682;9.030;2023-11-19T09:27:00;17.50;99.90
3954;DHT22;1991;48.682;9.030;2023-11-19T09:29:26;16.20;99.90
3954;DHT22;1991;48.682;9.030;2023-11-19T09:31:51;16.10;99.90
3954;DHT22;1991;48.682;9.030;2023-11-19T09:34:17;20.50;99.90
3954;DHT22;1991;48.682;9.030;2023-11-19T09:36:43;20.70;97.90
3954;DHT22;1991;48.682;9.030;2023-11-19T09:39:12;21.60;95.20
3954;DHT22;1991;48.682;9.030;2023-11-19T09:41:43;20.30;97.50
3954;DHT22;1991;48.682;9.030;2023-11-19T09:44:10;19.20;99.30
3954;DHT22;1991;48.682;9.030;2023-11-19T09:46:38;17.50;99.90
3954;DHT22;1991;48.682;9.030;2023-11-19T09:49:04;16.30;99.90
3954;DHT22;1991;48.682;9.030;2023-11-19T09:51:34;15.90;99.90
3954;DHT22;1991;48.682;9.030;2023-11-19T09:54:00;18.00;99.90
3954;DHT22;1991;48.682;9.030;2023-11-19T09:56:26;21.60;99.90
3954;DHT22;1991;48.682;9.030;2023-11-19T09:58:55;22.10;94.50
3954;DHT22;1991;48.682;9.030;2023-11-19T10:01:20;20.10;96.40
3954;DHT22;1991;48.682;9.030;2023-11-19T10:03:47;18.90;99.80
3954;DHT22;1991;48.682;9.030;2023-11-19T10:06:14;18.60;99.90
3954;DHT22;1991;48.682;9.030;2023-11-19T10:08:41;18.20;99.90
3954;DHT22;1991;48.682;9.030;2023-11-19T10:11:07;21.50;96.80
3954;DHT22;1991;48.682;9.030;2023-11-19T10:13:36;24.10;90.50
3954;DHT22;1991;48.682;9.030;2023-11-19T10:16:15;21.40;90.20
3954;DHT22;1991;48.682;9.030;2023-11-19T10:18:48;22.60;91.00
3954;DHT22;1991;48.682;9.030;2023-11-19T10:21:18;21.30;91.00
3954;DHT22;1991;48.682;9.030;2023-11-19T10:23:51;20.70;91.80
3954;DHT22;1991;48.682;9.030;2023-11-19T10:26:18;20.30;92.90
3954;DHT22;1991;48.682;9.030;2023-11-19T10:28:46;21.10;91.90
3954;DHT22;1991;48.682;9.030;2023-11-19T10:31:16;19.90;92.60
3954;DHT22;1991;48.682;9.030;2023-11-19T10:33:42;24.40;85.40
3954;DHT22;1991;48.682;9.030;2023-11-19T10:36:11;22.90;83.10
3954;DHT22;1991;48.682;9.030;2023-11-19T10:38:40;24.60;79.70
3954;DHT22;1991;48.682;9.030;2023-11-19T10:41:06;25.20;70.70
3954;DHT22;1991;48.682;9.030;2023-11-19T10:43:43;22.70;78.20
3954;DHT22;1991;48.682;9.030;2023-11-19T10:46:13;23.50;75.30
3954;DHT22;1991;48.682;9.030;2023-11-19T10:48:40;21.90;79.10
3954;DHT22;1991;48.682;9.030;2023-11-19T10:51:06;20.40;85.90
3954;DHT22;1991;48.682;9.030;2023-11-19T10:53:38;19.10;91.00
3954;DHT22;1991;48.682;9.030;2023-11-19T10:56:06;18.20;94.10
3954;DHT22;1991;48.682;9.030;2023-11-19T10:58:36;18.10;95.50
3954;DHT22;1991;48.682;9.030;2023-11-19T11:01:39;18.10;96.50
3954;DHT22;1991;48.682;9.030;2023-11-19T11:03:59;17.70;97.90
3954;DHT22;1991;48.682;9.030;2023-11-19T11:06:29;17.50;98.70
3954;DHT22;1991;48.682;9.030;2023-11-19T11:08:55;17.10;98.60
3954;DHT22;1991;48.682;9.030;2023-11-19T11:11:21;16.70;99.10
3954;DHT22;1991;48.682;9.030;2023-11-19T11:13:50;16.30;99.90
3954;DHT22;1991;48.682;9.030;2023-11-19T11:16:18;16.50;99.90
3954;DHT22;1991;48.682;9.030;2023-11-19T11:18:45;17.00;99.80
3954;DHT22;1991;48.682;9.030;2023-11-19T11:21:17;18.10;95.60
3954;DHT22;1991;48.682;9.030;2023-11-19T11:32:42;16.50;99.10
3954;DHT22;1991;48.682;9.030;2023-11-19T11:35:31;16.00;99.70
3954;DHT22;1991;48.682;9.030;2023-11-19T11:38:01;15.60;99.90
3954;DHT22;1991;48.682;9.030;2023-11-19T11:40:28;15.30;99.90
3954;DHT22;1991;48.682;9.030;2023-11-19T11:42:53;15.20;99.90
3954;DHT22;1991;48.682;9.030;2023-11-19T11:45:19;15.20;99.90
3954;DHT22;1991;48.682;9.030;2023-11-19T11:48:15;15.10;99.90
3954;DHT22;1991;48.682;9.030;2023-11-19T11:50:55;15.00;99.90
3954;DHT22;1991;48.682;9.030;2023-11-19T11:53:23;15.00;99.90
3954;DHT22;1991;48.682;9.030;2023-11-19T11:58:25;15.00;99.90
3954;DHT22;1991;48.682;9.030;2023-11-19T12:00:51;16.60;99.90
3954;DHT22;1991;48.682;9.030;2023-11-19T12:03:20;17.00;99.90
3954;DHT22;1991;48.682;9.030;2023-11-19T12:05:48;16.60;99.30
3954;DHT22;1991;48.682;9.030;2023-11-19T12:08:15;16.30;99.90
3954;DHT22;1991;48.682;9.030;2023-11-19T12:10:51;16.10;99.90
3954;DHT22;1991;48.682;9.030;2023-11-19T12:13:18;16.00;99.90
3954;DHT22;1991;48.682;9.030;2023-11-19T12:18:30;16.10;99.90
3954;DHT22;1991;48.682;9.030;2023-11-19T12:20:59;15.90;99.90
3954;DHT22;1991;48.682;9.030;2023-11-19T12:23:31;15.70;99.90
3954;DHT22;1991;48.682;9.030;2023-11-19T12:25:57;15.70;99.90
3954;DHT22;1991;48.682;9.030;2023-11-19T12:28:23;16.10;99.90
3954;DHT22;1991;48.682;9.030;2023-11-19T12:30:52;16.60;99.90
3954;DHT22;1991;48.682;9.030;2023-11-19T12:33:19;17.70;98.40
3954;DHT22;1991;48.682;9.030;2023-11-19T12:35:46;18.10;97.00
3954;DHT22;1991;48.682;9.030;2023-11-19T12:38:22;17.60;96.60
3954;DHT22;1991;48.682;9.030;2023-11-19T12:41:08;18.40;95.20
3954;DHT22;1991;48.682;9.030;2023-11-19T12:43:37;19.60;92.80
3954;DHT22;1991;48.682;9.030;2023-11-19T12:46:21;19.50;90.20
3954;DHT22;1991;48.682;9.030;2023-11-19T12:48:51;18.90;88.70
3954;DHT22;1991;48.682;9.030;2023-11-19T12:51:17;18.70;88.20
3954;DHT22;1991;48.682;9.030;2023-11-19T12:53:49;20.10;86.90
3954;DHT22;1991;48.682;9.030;2023-11-19T12:56:15;19.10;83.80
3954;DHT22;1991;48.682;9.030;2023-11-19T12:58:41;22.60;79.70
3954;DHT22;1991;48.682;9.030;2023-11-19T13:01:08;20.60;76.50
3954;DHT22;1991;48.682;9.030;2023-11-19T13:03:38;21.10;76.90
3954;DHT22;1991;48.682;9.030;2023-11-19T13:06:11;24.60;70.70
3954;DHT22;1991;48.682;9.030;2023-11-19T13:08:39;23.00;68.10
3954;DHT22;1991;48.682;9.030;2023-11-19T13:11:05;22.40;71.30
3954;DHT22;1991;48.682;9.030;2023-11-19T13:13:32;21.40;71.80
3954;DHT22;1991;48.682;9.030;2023-11-19T13:16:04;22.40;70.60
3954;DHT22;1991;48.682;9.030;2023-11-19T13:18:34;22.80;70.80
3954;DHT22;1991;48.682;9.030;2023-11-19T13:21:00;25.10;65.80
3954;DHT22;1991;48.682;9.030;2023-11-19T13:23:25;27.50;60.60
3954;DHT22;1991;48.682;9.030;2023-11-19T13:25:51;26.60;58.40
3954;DHT22;1991;48.682;9.030;2023-11-19T13:28:17;23.50;61.50
3954;DHT22;1991;48.682;9.030;2023-11-19T13:30:42;24.30;63.20
3954;DHT22;1991;48.682;9.030;2023-11-19T13:33:08;23.30;63.80
3954;DHT22;1991;48.682;9.030;2023-11-19T13:35:37;23.40;65.30
3954;DHT22;1991;48.682;9.030;2023-11-19T13:38:05;23.00;65.90
3954;DHT22;1991;48.682;9.030;2023-11-19T13:40:31;21.70;66.30
3954;DHT22;1991;48.682;9.030;2023-11-19T13:42:56;20.60;69.40
3954;DHT22;1991;48.682;9.030;2023-11-19T13:45:22;20.10;70.60
3954;DHT22;1991;48.682;9.030;2023-11-19T13:47:48;21.00;72.20
3954;DHT22;1991;48.682;9.030;2023-11-19T13:50:15;22.90;66.70
3954;DHT22;1991;48.682;9.030;2023-11-19T13:52:43;23.10;64.00
3954;DHT22;1991;48.682;9.030;2023-11-19T13:55:10;23.70;64.00
3954;DHT22;1991;48.682;9.030;2023-11-19T13:57:37;22.10;62.40
3954;DHT22;1991;48.682;9.030;2023-11-19T14:00:12;22.70;63.60
3954;DHT22;1991;48.682;9.030;2023-11-19T14:02:42;21.80;64.70
3954;DHT22;1991;48.682;9.030;2023-11-19T14:05:08;21.30;66.60
3954;DHT22;1991;48.682;9.030;2023-11-19T14:07:34;21.00;67.50
3954;DHT22;1991;48.682;9.030;2023-11-19T14:10:00;20.70;66.70
3954;DHT22;1991;48.682;9.030;2023-11-19T14:12:26;20.90;68.60
3954;DHT22;1991;48.682;9.030;2023-11-19T14:14:51;22.40;66.70
3954;DHT22;1991;48.682;9.030;2023-11-19T14:17:17;22.00;65.60
3954;DHT22;1991;48.682;9.030;2023-11-19T14:19:44;22.70;65.80
3954;DHT22;1991;48.682;9.030;2023-11-19T14:22:10;22.60;65.30
3954;DHT22;1991;48.682;9.030;2023-11-19T14:24:37;22.90;64.60
3954;DHT22;1991;48.682;9.030;2023-11-19T14:27:02;22.10;64.60
3954;DHT22;1991;48.682;9.030;2023-11-19T14:29:28;21.40;66.60
3954;DHT22;1991;48.682;9.030;2023-11-19T14:31:55;20.40;68.10
3954;DHT22;1991;48.682;9.030;2023-11-19T14:34:21;20.20;69.80
3954;DHT22;1991;48.682;9.030;2023-11-19T14:36:47;20.20;70.30
3954;DHT22;1991;48.682;9.030;2023-11-19T14:39:13;20.00;70.20
3954;DHT22;1991;48.682;9.030;2023-11-19T14:41:38;19.50;72.30
3954;DHT22;1991;48.682;9.030;2023-11-19T14:44:05;20.00;71.50
3954;DHT22;1991;48.682;9.030;2023-11-19T14:46:31;20.10;70.80
3954;DHT22;1991;48.682;9.030;2023-11-19T14:48:56;19.40;70.80
3954;DHT22;1991;48.682;9.030;2023-11-19T14:51:23;18.90;72.90
3954;DHT22;1991;48.682;9.030;2023-11-19T14:53:49;18.20;74.40
3954;DHT22;1991;48.682;9.030;2023-11-19T14:56:14;17.80;76.50
3954;DHT22;1991;48.682;9.030;2023-11-19T14:58:41;17.50;78.10
3954;DHT22;1991;48.682;9.030;2023-11-19T15:01:12;17.40;78.60
3954;DHT22;1991;48.682;9.030;2023-11-19T15:03:38;16.50;81.30
3954;DHT22;1991;48.682;9.030;2023-11-19T15:06:04;16.10;82.90
3954;DHT22;1991;48.682;9.030;2023-11-19T15:08:29;15.60;85.70
3954;DHT22;1991;48.682;9.030;2023-11-19T15:10:55;15.40;87.60
3954;DHT22;1991;48.682;9.030;2023-11-19T15:13:24;15.50;87.60
3954;DHT22;1991;48.682;9.030;2023-11-19T15:15:50;15.10;89.60
3954;DHT22;1991;48.682;9.030;2023-11-19T15:18:24;14.80;90.90
3954;DHT22;1991;48.682;9.030;2023-11-19T15:21:06;14.40;92.30
3954;DHT22;1991;48.682;9.030;2023-11-19T15:23:44;13.90;93.60
3954;DHT22;1991;48.682;9.030;2023-11-19T15:26:09;13.60;95.10
3954;DHT22;1991;48.682;9.030;2023-11-19T15:28:36;13.30;96.30
3954;DHT22;1991;48.682;9.030;2023-11-19T15:31:04;13.10;97.20
3954;DHT22;1991;48.682;9.030;2023-11-19T15:36:06;12.70;99.90
3954;DHT22;1991;48.682;9.030;2023-11-19T15:38:34;12.60;99.90
3954;DHT22;1991;48.682;9.030;2023-11-19T15:41:00;12.40;99.90
3954;DHT22;1991;48.682;9.030;2023-11-19T15:43:26;12.20;99.90
3954;DHT22;1991;48.682;9.030;2023-11-19T15:45:53;12.10;99.90
3954;DHT22;1991;48.682;9.030;2023-11-19T15:48:18;12.00;99.90
3954;DHT22;1991;48.682;9.030;2023-11-19T15:50:44;11.90;99.90
3954;DHT22;1991;48.682;9.030;2023-11-19T15:55:46;11.70;99.90
3954;DHT22;1991;48.682;9.030;2023-11-19T15:58:22;11.60;99.90
3954;DHT22;1991;48.682;9.030;2023-11-19T16:00:48;11.60;99.90
3954;DHT22;1991;48.682;9.030;2023-11-19T16:03:14;11.60;99.90
3954;DHT22;1991;48.682;9.030;2023-11-19T16:05:40;11.50;99.90
3954;DHT22;1991;48.682;9.030;2023-11-19T16:08:06;11.40;99.90
3954;DHT22;1991;48.682;9.030;2023-11-19T16:10:33;11.40;99.90
3954;DHT22;1991;48.682;9.030;2023-11-19T16:12:59;11.20;99.90
3954;DHT22;1991;48.682;9.030;2023-11-19T16:15:24;11.20;99.90
3954;DHT22;1991;48.682;9.030;2023-11-19T16:17:50;11.10;99.90
3954;DHT22;1991;48.682;9.030;2023-11-19T16:20:15;11.00;99.90
3954;DHT22;1991;48.682;9.030;2023-11-19T16:22:41;11.00;99.90
3954;DHT22;1991;48.682;9.030;2023-11-19T16:25:10;10.90;99.90
3954;DHT22;1991;48.682;9.030;2023-11-19T16:27:35;10.80;99.90
3954;DHT22;1991;48.682;9.030;2023-11-19T16:30:01;10.80;99.90
3954;DHT22;1991;48.682;9.030;2023-11-19T16:32:27;10.80;99.90
3954;DHT22;1991;48.682;9.030;2023-11-19T16:34:53;10.70;99.90
3954;DHT22;1991;48.682;9.030;2023-11-19T16:37:18;10.70;99.90
3954;DHT22;1991;48.682;9.030;2023-11-19T16:39:46;10.60;99.90
3954;DHT22;1991;48.682;9.030;2023-11-19T16:42:12;10.50;99.90
3954;DHT22;1991;48.682;9.030;2023-11-19T16:44:39;10.60;99.90
3954;DHT22;1991;48.682;9.030;2023-11-19T16:47:05;10.60;99.90
3954;DHT22;1991;48.682;9.030;2023-11-19T16:49:32;10.60;99.90
3954;DHT22;1991;48.682;9.030;2023-11-19T16:51:58;10.50;99.90
3954;DHT22;1991;48.682;9.030;2023-11-19T16:54:24;10.50;99.90
3954;DHT22;1991;48.682;9.030;2023-11-19T16:56:49;10.60;99.90
3954;DHT22;1991;48.682;9.030;2023-11-19T16:59:15;10.70;99.90
3954;DHT22;1991;48.682;9.030;2023-11-19T17:01:40;10.70;99.90
3954;DHT22;1991;48.682;9.030;2023-11-19T17:04:06;10.60;99.90
3954;DHT22;1991;48.682;9.030;2023-11-19T17:06:33;10.50;99.90
3954;DHT22;1991;48.682;9.030;2023-11-19T17:08:59;10.60;99.90
3954;DHT22;1991;48.682;9.030;2023-11-19T17:11:24;10.60;99.90